Decoded Metar for LEZG (ZARAGOZA in SPAIN) (IATA:ZAZ) | Meteo·Mobile Aviation Weather
aviador You're here:

LEZG Decoded Metar

ZARAGOZA in SPAIN
Report Time2019-10-22 13:14:00
UTC Time2019-10-22 13:25:57
Flight Rules vfr VFR
Wind300° at 14 kt
W.Decomp.*RWY 30: 14.0 kt HW 0.2 kt RCW
Visibility8000 m
Phenomena:Light Rain
Clouds:Few CB 040 Hf
Broken 050 Hf
Overcast 060 Hf
Expected CloudBase > 400 ft AGL from Temp-Dew spread
Ceiling5,000 ft
Temp10°C (ISA -3)
Dew Point09°C (94% RH)
AAT4.8°C
QNH1011 hPa
Density Alt676 ft
Elevation846 ft
Report Wrong Elevation
Raw Report
SPECI LEZG 221314Z 30014KT 8000 -RA FEW040CB BKN050 OVC060 10/09 Q1011
RERA=

Extra information for LEZG:More info

Metar Taf Metar & Taf Last 4 Metars F.Rules Stats Wind Profile Meteogram Temp Stats Airport Information Weather charts Add Link Nearby VenuesMetar ALERT Operation Metar Decoded Social comments